sensor_id;sensor_type;location;lat;lon;timestamp;P1;durP1;ratioP1;P2;durP2;ratioP2
48813;SDS011;34634;44.108;3.074;2023-04-24T00:00:06;11.05;;;2.03;;
48813;SDS011;34634;44.108;3.074;2023-04-24T00:02:34;11.40;;;1.90;;
48813;SDS011;34634;44.108;3.074;2023-04-24T00:05:03;15.38;;;2.28;;
48813;SDS011;34634;44.108;3.074;2023-04-24T00:07:30;7.68;;;1.83;;
48813;SDS011;34634;44.108;3.074;2023-04-24T00:09:57;15.82;;;2.00;;
48813;SDS011;34634;44.108;3.074;2023-04-24T00:12:23;12.30;;;2.40;;
48813;SDS011;34634;44.108;3.074;2023-04-24T00:14:50;8.60;;;1.73;;
48813;SDS011;34634;44.108;3.074;2023-04-24T00:17:17;10.38;;;2.22;;
48813;SDS011;34634;44.108;3.074;2023-04-24T00:19:46;13.68;;;2.35;;
48813;SDS011;34634;44.108;3.074;2023-04-24T00:22:13;8.20;;;2.20;;
48813;SDS011;34634;44.108;3.074;2023-04-24T00:24:39;16.73;;;2.33;;
48813;SDS011;34634;44.108;3.074;2023-04-24T00:27:06;9.15;;;2.08;;
48813;SDS011;34634;44.108;3.074;2023-04-24T00:29:32;15.90;;;2.10;;
48813;SDS011;34634;44.108;3.074;2023-04-24T00:31:58;9.95;;;2.38;;
48813;SDS011;34634;44.108;3.074;2023-04-24T00:34:25;11.45;;;2.10;;
48813;SDS011;34634;44.108;3.074;2023-04-24T00:36:51;12.65;;;2.22;;
48813;SDS011;34634;44.108;3.074;2023-04-24T00:39:18;12.48;;;2.03;;
48813;SDS011;34634;44.108;3.074;2023-04-24T00:41:45;11.02;;;2.05;;
48813;SDS011;34634;44.108;3.074;2023-04-24T00:44:11;10.90;;;2.38;;
48813;SDS011;34634;44.108;3.074;2023-04-24T00:46:37;7.90;;;1.83;;
48813;SDS011;34634;44.108;3.074;2023-04-24T00:49:04;11.10;;;2.58;;
48813;SDS011;34634;44.108;3.074;2023-04-24T00:51:31;11.27;;;2.40;;
48813;SDS011;34634;44.108;3.074;2023-04-24T00:53:58;11.13;;;2.25;;
48813;SDS011;34634;44.108;3.074;2023-04-24T00:56:25;14.23;;;2.17;;
48813;SDS011;34634;44.108;3.074;2023-04-24T00:58:51;10.23;;;2.08;;
48813;SDS011;34634;44.108;3.074;2023-04-24T01:01:21;8.18;;;2.33;;
48813;SDS011;34634;44.108;3.074;2023-04-24T01:03:48;11.13;;;2.13;;
48813;SDS011;34634;44.108;3.074;2023-04-24T01:06:16;10.68;;;1.92;;
48813;SDS011;34634;44.108;3.074;2023-04-24T01:08:42;10.48;;;2.42;;
48813;SDS011;34634;44.108;3.074;2023-04-24T01:11:09;13.93;;;2.50;;
48813;SDS011;34634;44.108;3.074;2023-04-24T01:13:35;13.50;;;2.30;;
48813;SDS011;34634;44.108;3.074;2023-04-24T01:16:02;10.45;;;2.13;;
48813;SDS011;34634;44.108;3.074;2023-04-24T01:18:28;17.95;;;2.58;;
48813;SDS011;34634;44.108;3.074;2023-04-24T01:20:58;10.65;;;2.08;;
48813;SDS011;34634;44.108;3.074;2023-04-24T01:23:25;13.23;;;2.75;;
48813;SDS011;34634;44.108;3.074;2023-04-24T01:25:51;13.40;;;2.15;;
48813;SDS011;34634;44.108;3.074;2023-04-24T01:28:18;14.68;;;2.45;;
48813;SDS011;34634;44.108;3.074;2023-04-24T01:30:45;9.13;;;2.20;;
48813;SDS011;34634;44.108;3.074;2023-04-24T01:33:11;12.55;;;2.50;;
48813;SDS011;34634;44.108;3.074;2023-04-24T01:35:37;16.90;;;2.90;;
48813;SDS011;34634;44.108;3.074;2023-04-24T01:38:04;12.02;;;2.70;;
48813;SDS011;34634;44.108;3.074;2023-04-24T01:40:31;12.15;;;1.92;;
48813;SDS011;34634;44.108;3.074;2023-04-24T01:42:57;12.07;;;2.33;;
48813;SDS011;34634;44.108;3.074;2023-04-24T01:45:24;7.72;;;2.00;;
48813;SDS011;34634;44.108;3.074;2023-04-24T01:47:51;10.10;;;2.25;;
48813;SDS011;34634;44.108;3.074;2023-04-24T01:50:17;11.77;;;2.33;;
48813;SDS011;34634;44.108;3.074;2023-04-24T01:52:44;14.23;;;2.55;;
48813;SDS011;34634;44.108;3.074;2023-04-24T01:55:10;15.25;;;2.35;;
48813;SDS011;34634;44.108;3.074;2023-04-24T01:57:37;15.57;;;2.35;;
48813;SDS011;34634;44.108;3.074;2023-04-24T02:00:03;13.65;;;2.35;;
48813;SDS011;34634;44.108;3.074;2023-04-24T02:02:31;18.88;;;2.28;;
48813;SDS011;34634;44.108;3.074;2023-04-24T02:04:58;12.35;;;2.10;;
48813;SDS011;34634;44.108;3.074;2023-04-24T02:07:24;12.50;;;2.50;;
48813;SDS011;34634;44.108;3.074;2023-04-24T02:09:50;15.05;;;2.05;;
48813;SDS011;34634;44.108;3.074;2023-04-24T02:12:17;13.77;;;2.17;;
48813;SDS011;34634;44.108;3.074;2023-04-24T02:14:43;16.80;;;2.55;;
48813;SDS011;34634;44.108;3.074;2023-04-24T02:17:10;12.02;;;2.35;;
48813;SDS011;34634;44.108;3.074;2023-04-24T02:19:37;13.73;;;2.33;;
48813;SDS011;34634;44.108;3.074;2023-04-24T02:22:04;14.73;;;2.60;;
48813;SDS011;34634;44.108;3.074;2023-04-24T02:24:30;16.88;;;2.30;;
48813;SDS011;34634;44.108;3.074;2023-04-24T02:26:57;10.75;;;1.88;;
48813;SDS011;34634;44.108;3.074;2023-04-24T02:29:23;13.13;;;2.17;;
48813;SDS011;34634;44.108;3.074;2023-04-24T02:31:49;8.45;;;1.88;;
48813;SDS011;34634;44.108;3.074;2023-04-24T02:34:16;14.43;;;2.47;;
48813;SDS011;34634;44.108;3.074;2023-04-24T02:36:42;9.55;;;2.22;;
48813;SDS011;34634;44.108;3.074;2023-04-24T02:39:08;11.85;;;2.20;;
48813;SDS011;34634;44.108;3.074;2023-04-24T02:41:35;12.23;;;1.90;;
48813;SDS011;34634;44.108;3.074;2023-04-24T02:44:02;13.65;;;2.20;;
48813;SDS011;34634;44.108;3.074;2023-04-24T02:46:28;10.38;;;2.08;;
48813;SDS011;34634;44.108;3.074;2023-04-24T02:48:55;14.27;;;1.98;;
48813;SDS011;34634;44.108;3.074;2023-04-24T02:51:21;14.45;;;2.78;;
48813;SDS011;34634;44.108;3.074;2023-04-24T02:53:47;14.68;;;2.50;;
48813;SDS011;34634;44.108;3.074;2023-04-24T02:56:14;12.77;;;1.92;;
48813;SDS011;34634;44.108;3.074;2023-04-24T02:58:40;13.15;;;2.53;;
48813;SDS011;34634;44.108;3.074;2023-04-24T03:01:07;16.42;;;2.25;;
48813;SDS011;34634;44.108;3.074;2023-04-24T03:03:35;9.57;;;2.22;;
48813;SDS011;34634;44.108;3.074;2023-04-24T03:06:01;10.10;;;2.20;;
48813;SDS011;34634;44.108;3.074;2023-04-24T03:08:28;9.13;;;2.30;;
48813;SDS011;34634;44.108;3.074;2023-04-24T03:10:54;13.82;;;2.20;;
48813;SDS011;34634;44.108;3.074;2023-04-24T03:13:20;9.63;;;1.70;;
48813;SDS011;34634;44.108;3.074;2023-04-24T03:15:47;10.20;;;1.70;;
48813;SDS011;34634;44.108;3.074;2023-04-24T03:18:13;12.80;;;2.03;;
48813;SDS011;34634;44.108;3.074;2023-04-24T03:20:39;8.15;;;1.85;;
48813;SDS011;34634;44.108;3.074;2023-04-24T03:23:06;9.75;;;2.00;;
48813;SDS011;34634;44.108;3.074;2023-04-24T03:25:32;9.85;;;2.10;;
48813;SDS011;34634;44.108;3.074;2023-04-24T03:27:59;10.00;;;1.65;;
48813;SDS011;34634;44.108;3.074;2023-04-24T03:30:25;8.20;;;2.03;;
48813;SDS011;34634;44.108;3.074;2023-04-24T03:32:51;11.98;;;2.10;;
48813;SDS011;34634;44.108;3.074;2023-04-24T03:35:18;7.55;;;2.08;;
48813;SDS011;34634;44.108;3.074;2023-04-24T03:37:44;11.30;;;2.25;;
48813;SDS011;34634;44.108;3.074;2023-04-24T03:40:11;10.65;;;1.90;;
48813;SDS011;34634;44.108;3.074;2023-04-24T03:42:37;17.75;;;2.83;;
48813;SDS011;34634;44.108;3.074;2023-04-24T03:45:04;11.70;;;2.30;;
48813;SDS011;34634;44.108;3.074;2023-04-24T03:47:30;9.73;;;2.38;;
48813;SDS011;34634;44.108;3.074;2023-04-24T03:49:57;8.85;;;2.00;;
48813;SDS011;34634;44.108;3.074;2023-04-24T03:52:23;7.78;;;1.98;;
48813;SDS011;34634;44.108;3.074;2023-04-24T03:54:49;9.45;;;2.00;;
48813;SDS011;34634;44.108;3.074;2023-04-24T03:57:16;8.75;;;2.28;;
48813;SDS011;34634;44.108;3.074;2023-04-24T03:59:42;12.52;;;2.10;;
48813;SDS011;34634;44.108;3.074;2023-04-24T04:02:08;11.13;;;2.10;;
48813;SDS011;34634;44.108;3.074;2023-04-24T04:04:34;8.95;;;2.00;;
48813;SDS011;34634;44.108;3.074;2023-04-24T04:07:01;11.88;;;2.85;;
48813;SDS011;34634;44.108;3.074;2023-04-24T04:09:28;10.90;;;3.30;;
48813;SDS011;34634;44.108;3.074;2023-04-24T04:11:55;13.65;;;2.80;;
48813;SDS011;34634;44.108;3.074;2023-04-24T04:14:21;10.45;;;3.63;;
48813;SDS011;34634;44.108;3.074;2023-04-24T04:16:48;8.13;;;2.72;;
48813;SDS011;34634;44.108;3.074;2023-04-24T04:19:15;9.55;;;2.42;;
48813;SDS011;34634;44.108;3.074;2023-04-24T04:21:41;10.13;;;2.92;;
48813;SDS011;34634;44.108;3.074;2023-04-24T04:24:07;14.15;;;3.60;;
48813;SDS011;34634;44.108;3.074;2023-04-24T04:26:34;13.50;;;4.15;;
48813;SDS011;34634;44.108;3.074;2023-04-24T04:29:03;11.68;;;4.05;;
48813;SDS011;34634;44.108;3.074;2023-04-24T04:31:29;9.75;;;3.45;;
48813;SDS011;34634;44.108;3.074;2023-04-24T04:33:56;11.25;;;2.42;;
48813;SDS011;34634;44.108;3.074;2023-04-24T04:36:22;8.27;;;1.90;;
48813;SDS011;34634;44.108;3.074;2023-04-24T04:38:49;9.35;;;2.30;;
48813;SDS011;34634;44.108;3.074;2023-04-24T04:41:15;13.65;;;2.15;;
48813;SDS011;34634;44.108;3.074;2023-04-24T04:43:43;8.75;;;1.80;;
48813;SDS011;34634;44.108;3.074;2023-04-24T04:46:09;11.73;;;1.90;;
48813;SDS011;34634;44.108;3.074;2023-04-24T04:48:36;9.75;;;1.90;;
48813;SDS011;34634;44.108;3.074;2023-04-24T04:51:03;7.00;;;1.60;;
48813;SDS011;34634;44.108;3.074;2023-04-24T04:53:29;14.48;;;2.33;;
48813;SDS011;34634;44.108;3.074;2023-04-24T04:55:56;5.72;;;1.60;;
48813;SDS011;34634;44.108;3.074;2023-04-24T04:58:22;7.53;;;2.22;;
48813;SDS011;34634;44.108;3.074;2023-04-24T05:00:48;9.07;;;1.40;;
48813;SDS011;34634;44.108;3.074;2023-04-24T05:03:15;8.98;;;1.60;;
48813;SDS011;34634;44.108;3.074;2023-04-24T05:05:41;12.45;;;2.30;;
48813;SDS011;34634;44.108;3.074;2023-04-24T05:08:07;10.18;;;1.45;;
48813;SDS011;34634;44.108;3.074;2023-04-24T05:10:34;10.43;;;2.08;;
48813;SDS011;34634;44.108;3.074;2023-04-24T05:13:02;8.48;;;1.80;;
48813;SDS011;34634;44.108;3.074;2023-04-24T05:15:29;5.78;;;1.45;;
48813;SDS011;34634;44.108;3.074;2023-04-24T05:17:56;7.80;;;1.60;;
48813;SDS011;34634;44.108;3.074;2023-04-24T05:20:22;9.82;;;2.03;;
48813;SDS011;34634;44.108;3.074;2023-04-24T05:22:48;7.97;;;1.42;;
48813;SDS011;34634;44.108;3.074;2023-04-24T05:25:15;7.55;;;1.73;;
48813;SDS011;34634;44.108;3.074;2023-04-24T05:27:41;8.48;;;1.77;;
48813;SDS011;34634;44.108;3.074;2023-04-24T05:30:08;6.50;;;1.83;;
48813;SDS011;34634;44.108;3.074;2023-04-24T05:32:34;9.10;;;1.77;;
48813;SDS011;34634;44.108;3.074;2023-04-24T05:35:01;9.25;;;1.67;;
48813;SDS011;34634;44.108;3.074;2023-04-24T05:37:27;7.38;;;1.60;;
48813;SDS011;34634;44.108;3.074;2023-04-24T05:39:53;7.32;;;1.83;;
48813;SDS011;34634;44.108;3.074;2023-04-24T05:42:20;6.50;;;1.90;;
48813;SDS011;34634;44.108;3.074;2023-04-24T05:44:46;6.13;;;1.80;;
48813;SDS011;34634;44.108;3.074;2023-04-24T05:47:12;4.93;;;1.42;;
48813;SDS011;34634;44.108;3.074;2023-04-24T05:49:39;8.30;;;1.73;;
48813;SDS011;34634;44.108;3.074;2023-04-24T05:52:05;7.95;;;1.95;;
48813;SDS011;34634;44.108;3.074;2023-04-24T05:54:34;9.23;;;1.63;;
48813;SDS011;34634;44.108;3.074;2023-04-24T05:57:00;5.00;;;1.48;;
48813;SDS011;34634;44.108;3.074;2023-04-24T05:59:33;7.90;;;1.50;;
48813;SDS011;34634;44.108;3.074;2023-04-24T06:01:59;10.32;;;1.80;;
48813;SDS011;34634;44.108;3.074;2023-04-24T06:04:25;5.15;;;1.45;;
48813;SDS011;34634;44.108;3.074;2023-04-24T06:06:52;7.55;;;2.20;;
48813;SDS011;34634;44.108;3.074;2023-04-24T06:09:21;5.53;;;1.17;;
48813;SDS011;34634;44.108;3.074;2023-04-24T06:11:48;7.78;;;1.10;;
48813;SDS011;34634;44.108;3.074;2023-04-24T06:14:15;1.88;;;0.60;;
48813;SDS011;34634;44.108;3.074;2023-04-24T06:16:42;4.93;;;0.90;;
48813;SDS011;34634;44.108;3.074;2023-04-24T06:19:08;2.35;;;0.68;;
48813;SDS011;34634;44.108;3.074;2023-04-24T06:21:34;4.32;;;0.82;;
48813;SDS011;34634;44.108;3.074;2023-04-24T06:24:01;10.13;;;1.05;;
48813;SDS011;34634;44.108;3.074;2023-04-24T06:26:27;5.63;;;1.25;;
48813;SDS011;34634;44.108;3.074;2023-04-24T06:28:54;1.48;;;0.70;;
48813;SDS011;34634;44.108;3.074;2023-04-24T06:31:20;2.10;;;0.73;;
48813;SDS011;34634;44.108;3.074;2023-04-24T06:33:47;5.13;;;1.25;;
48813;SDS011;34634;44.108;3.074;2023-04-24T06:36:14;4.10;;;1.75;;
48813;SDS011;34634;44.108;3.074;2023-04-24T06:38:41;15.43;;;5.95;;
48813;SDS011;34634;44.108;3.074;2023-04-24T06:41:09;12.05;;;6.35;;
48813;SDS011;34634;44.108;3.074;2023-04-24T06:43:35;11.85;;;5.72;;
48813;SDS011;34634;44.108;3.074;2023-04-24T06:46:02;13.85;;;5.97;;
48813;SDS011;34634;44.108;3.074;2023-04-24T06:48:28;10.23;;;4.05;;
48813;SDS011;34634;44.108;3.074;2023-04-24T06:50:55;6.28;;;2.75;;
48813;SDS011;34634;44.108;3.074;2023-04-24T06:53:21;5.03;;;1.85;;
48813;SDS011;34634;44.108;3.074;2023-04-24T06:55:47;13.52;;;1.83;;
48813;SDS011;34634;44.108;3.074;2023-04-24T06:58:14;3.97;;;1.40;;
48813;SDS011;34634;44.108;3.074;2023-04-24T07:00:41;6.22;;;1.30;;
48813;SDS011;34634;44.108;3.074;2023-04-24T07:03:07;2.63;;;0.80;;
48813;SDS011;34634;44.108;3.074;2023-04-24T07:05:33;5.45;;;0.95;;
48813;SDS011;34634;44.108;3.074;2023-04-24T07:08:00;2.55;;;0.70;;
48813;SDS011;34634;44.108;3.074;2023-04-24T07:10:27;2.63;;;0.88;;
48813;SDS011;34634;44.108;3.074;2023-04-24T07:12:54;5.28;;;1.00;;
48813;SDS011;34634;44.108;3.074;2023-04-24T07:15:21;5.78;;;0.93;;
48813;SDS011;34634;44.108;3.074;2023-04-24T07:17:48;3.33;;;0.70;;
48813;SDS011;34634;44.108;3.074;2023-04-24T07:20:15;5.47;;;1.10;;
48813;SDS011;34634;44.108;3.074;2023-04-24T07:22:41;6.43;;;1.52;;
48813;SDS011;34634;44.108;3.074;2023-04-24T07:25:08;4.13;;;1.02;;
48813;SDS011;34634;44.108;3.074;2023-04-24T07:27:34;3.05;;;0.90;;
48813;SDS011;34634;44.108;3.074;2023-04-24T07:30:01;4.88;;;1.20;;
48813;SDS011;34634;44.108;3.074;2023-04-24T07:32:29;4.22;;;0.98;;
48813;SDS011;34634;44.108;3.074;2023-04-24T07:34:55;4.32;;;0.82;;
48813;SDS011;34634;44.108;3.074;2023-04-24T07:37:22;5.75;;;1.00;;
48813;SDS011;34634;44.108;3.074;2023-04-24T07:39:49;4.20;;;1.17;;
48813;SDS011;34634;44.108;3.074;2023-04-24T07:42:15;4.68;;;1.27;;
48813;SDS011;34634;44.108;3.074;2023-04-24T07:44:41;2.92;;;0.90;;
48813;SDS011;34634;44.108;3.074;2023-04-24T07:47:08;3.03;;;0.73;;
48813;SDS011;34634;44.108;3.074;2023-04-24T07:49:34;4.35;;;1.02;;
48813;SDS011;34634;44.108;3.074;2023-04-24T07:52:00;4.07;;;1.13;;
48813;SDS011;34634;44.108;3.074;2023-04-24T07:54:28;3.55;;;0.88;;
48813;SDS011;34634;44.108;3.074;2023-04-24T07:56:54;2.65;;;0.85;;
48813;SDS011;34634;44.108;3.074;2023-04-24T07:59:20;4.35;;;1.00;;
48813;SDS011;34634;44.108;3.074;2023-04-24T08:01:47;2.10;;;0.77;;
48813;SDS011;34634;44.108;3.074;2023-04-24T08:04:14;2.00;;;0.77;;
48813;SDS011;34634;44.108;3.074;2023-04-24T08:06:40;3.72;;;0.70;;
48813;SDS011;34634;44.108;3.074;2023-04-24T08:09:06;3.67;;;0.93;;
48813;SDS011;34634;44.108;3.074;2023-04-24T08:11:33;3.30;;;0.70;;
48813;SDS011;34634;44.108;3.074;2023-04-24T08:13:59;2.80;;;0.65;;
48813;SDS011;34634;44.108;3.074;2023-04-24T08:16:26;2.63;;;0.88;;
48813;SDS011;34634;44.108;3.074;2023-04-24T08:18:52;2.17;;;0.88;;
48813;SDS011;34634;44.108;3.074;2023-04-24T08:21:19;6.15;;;0.90;;
48813;SDS011;34634;44.108;3.074;2023-04-24T08:23:46;4.03;;;0.90;;
48813;SDS011;34634;44.108;3.074;2023-04-24T08:26:13;3.22;;;0.90;;
48813;SDS011;34634;44.108;3.074;2023-04-24T08:28:39;4.40;;;0.90;;
48813;SDS011;34634;44.108;3.074;2023-04-24T08:31:05;5.15;;;0.75;;
48813;SDS011;34634;44.108;3.074;2023-04-24T08:33:32;1.48;;;0.63;;
48813;SDS011;34634;44.108;3.074;2023-04-24T08:36:02;2.85;;;0.80;;
48813;SDS011;34634;44.108;3.074;2023-04-24T08:38:28;3.50;;;0.82;;
48813;SDS011;34634;44.108;3.074;2023-04-24T08:40:55;2.30;;;0.70;;
48813;SDS011;34634;44.108;3.074;2023-04-24T08:43:22;1.52;;;0.70;;
48813;SDS011;34634;44.108;3.074;2023-04-24T08:45:48;2.58;;;0.80;;
48813;SDS011;34634;44.108;3.074;2023-04-24T08:48:15;2.72;;;0.70;;
48813;SDS011;34634;44.108;3.074;2023-04-24T08:50:41;3.88;;;1.02;;
48813;SDS011;34634;44.108;3.074;2023-04-24T08:53:08;1.73;;;0.80;;
48813;SDS011;34634;44.108;3.074;2023-04-24T08:55:35;3.70;;;0.88;;
48813;SDS011;34634;44.108;3.074;2023-04-24T08:58:02;4.65;;;1.10;;
48813;SDS011;34634;44.108;3.074;2023-04-24T09:00:28;3.28;;;0.68;;
48813;SDS011;34634;44.108;3.074;2023-04-24T09:02:55;3.75;;;0.65;;
48813;SDS011;34634;44.108;3.074;2023-04-24T09:05:22;4.40;;;0.90;;
48813;SDS011;34634;44.108;3.074;2023-04-24T09:07:55;7.00;;;1.10;;
48813;SDS011;34634;44.108;3.074;2023-04-24T09:10:22;3.90;;;1.10;;
48813;SDS011;34634;44.108;3.074;2023-04-24T09:12:50;4.53;;;1.17;;
48813;SDS011;34634;44.108;3.074;2023-04-24T09:15:18;1.55;;;0.98;;
48813;SDS011;34634;44.108;3.074;2023-04-24T09:17:45;4.60;;;1.50;;
48813;SDS011;34634;44.108;3.074;2023-04-24T09:20:12;9.75;;;1.23;;
48813;SDS011;34634;44.108;3.074;2023-04-24T09:22:38;3.80;;;1.20;;
48813;SDS011;34634;44.108;3.074;2023-04-24T09:25:06;5.30;;;1.38;;
48813;SDS011;34634;44.108;3.074;2023-04-24T09:27:33;4.97;;;1.20;;
48813;SDS011;34634;44.108;3.074;2023-04-24T09:29:59;3.97;;;1.20;;
48813;SDS011;34634;44.108;3.074;2023-04-24T09:32:26;4.15;;;1.25;;
48813;SDS011;34634;44.108;3.074;2023-04-24T09:35:08;3.80;;;1.20;;
48813;SDS011;34634;44.108;3.074;2023-04-24T09:37:35;3.28;;;1.38;;
48813;SDS011;34634;44.108;3.074;2023-04-24T09:40:12;2.17;;;1.00;;
48813;SDS011;34634;44.108;3.074;2023-04-24T09:42:39;2.95;;;1.27;;
48813;SDS011;34634;44.108;3.074;2023-04-24T09:45:09;3.20;;;1.15;;
48813;SDS011;34634;44.108;3.074;2023-04-24T09:47:37;2.65;;;1.27;;
48813;SDS011;34634;44.108;3.074;2023-04-24T09:50:13;4.40;;;1.33;;
48813;SDS011;34634;44.108;3.074;2023-04-24T09:52:43;2.17;;;1.23;;
48813;SDS011;34634;44.108;3.074;2023-04-24T09:55:18;3.53;;;0.98;;
48813;SDS011;34634;44.108;3.074;2023-04-24T09:57:51;1.38;;;0.80;;
48813;SDS011;34634;44.108;3.074;2023-04-24T10:00:25;1.88;;;0.80;;
48813;SDS011;34634;44.108;3.074;2023-04-24T10:02:55;2.17;;;1.02;;
48813;SDS011;34634;44.108;3.074;2023-04-24T10:05:24;3.25;;;1.02;;
48813;SDS011;34634;44.108;3.074;2023-04-24T10:07:51;5.30;;;1.55;;
48813;SDS011;34634;44.108;3.074;2023-04-24T10:10:17;4.20;;;1.50;;
48813;SDS011;34634;44.108;3.074;2023-04-24T10:12:43;2.75;;;1.30;;
48813;SDS011;34634;44.108;3.074;2023-04-24T10:15:10;4.35;;;1.30;;
48813;SDS011;34634;44.108;3.074;2023-04-24T10:17:37;5.78;;;1.60;;
48813;SDS011;34634;44.108;3.074;2023-04-24T10:20:05;5.18;;;2.22;;
48813;SDS011;34634;44.108;3.074;2023-04-24T10:22:32;2.70;;;1.00;;
48813;SDS011;34634;44.108;3.074;2023-04-24T10:24:58;5.00;;;1.92;;
48813;SDS011;34634;44.108;3.074;2023-04-24T10:27:25;4.70;;;1.50;;
48813;SDS011;34634;44.108;3.074;2023-04-24T10:29:53;4.13;;;2.10;;
48813;SDS011;34634;44.108;3.074;2023-04-24T10:32:19;7.80;;;3.95;;
48813;SDS011;34634;44.108;3.074;2023-04-24T10:34:45;5.20;;;1.63;;
48813;SDS011;34634;44.108;3.074;2023-04-24T10:37:12;6.93;;;3.10;;
48813;SDS011;34634;44.108;3.074;2023-04-24T10:39:38;2.05;;;1.20;;
48813;SDS011;34634;44.108;3.074;2023-04-24T10:42:15;3.00;;;1.08;;
48813;SDS011;34634;44.108;3.074;2023-04-24T10:44:42;1.30;;;0.85;;
48813;SDS011;34634;44.108;3.074;2023-04-24T10:47:14;3.22;;;1.00;;
48813;SDS011;34634;44.108;3.074;2023-04-24T10:49:40;4.13;;;1.75;;
48813;SDS011;34634;44.108;3.074;2023-04-24T10:52:08;4.45;;;2.03;;
48813;SDS011;34634;44.108;3.074;2023-04-24T11:00:31;4.30;;;2.22;;
48813;SDS011;34634;44.108;3.074;2023-04-24T11:02:38;3.83;;;1.80;;
48813;SDS011;34634;44.108;3.074;2023-04-24T11:05:05;2.20;;;0.98;;
48813;SDS011;34634;44.108;3.074;2023-04-24T11:10:26;3.38;;;1.80;;
48813;SDS011;34634;44.108;3.074;2023-04-24T11:12:53;2.80;;;1.38;;
48813;SDS011;34634;44.108;3.074;2023-04-24T11:15:19;2.35;;;1.00;;
48813;SDS011;34634;44.108;3.074;2023-04-24T11:17:46;4.47;;;2.00;;
48813;SDS011;34634;44.108;3.074;2023-04-24T11:20:16;2.95;;;1.80;;
48813;SDS011;34634;44.108;3.074;2023-04-24T11:22:43;4.53;;;2.67;;
48813;SDS011;34634;44.108;3.074;2023-04-24T11:25:09;3.38;;;1.77;;
48813;SDS011;34634;44.108;3.074;2023-04-24T11:27:41;2.58;;;1.25;;
48813;SDS011;34634;44.108;3.074;2023-04-24T11:30:08;2.55;;;1.35;;
48813;SDS011;34634;44.108;3.074;2023-04-24T11:32:42;2.28;;;1.13;;
48813;SDS011;34634;44.108;3.074;2023-04-24T11:35:13;3.05;;;1.50;;
48813;SDS011;34634;44.108;3.074;2023-04-24T11:37:41;4.38;;;1.13;;
48813;SDS011;34634;44.108;3.074;2023-04-24T11:40:11;3.17;;;1.30;;
48813;SDS011;34634;44.108;3.074;2023-04-24T11:42:38;2.90;;;1.40;;
48813;SDS011;34634;44.108;3.074;2023-04-24T11:45:12;7.90;;;2.10;;
48813;SDS011;34634;44.108;3.074;2023-04-24T11:47:39;2.30;;;1.00;;
48813;SDS011;34634;44.108;3.074;2023-04-24T11:50:07;4.88;;;1.33;;
48813;SDS011;34634;44.108;3.074;2023-04-24T11:52:36;3.15;;;1.20;;
48813;SDS011;34634;44.108;3.074;2023-04-24T11:55:03;4.22;;;1.92;;
48813;SDS011;34634;44.108;3.074;2023-04-24T11:57:29;3.55;;;1.20;;
48813;SDS011;34634;44.108;3.074;2023-04-24T12:00:00;1.92;;;1.27;;
48813;SDS011;34634;44.108;3.074;2023-04-24T12:02:26;3.80;;;1.50;;
48813;SDS011;34634;44.108;3.074;2023-04-24T12:04:53;3.42;;;1.50;;
48813;SDS011;34634;44.108;3.074;2023-04-24T12:07:21;4.20;;;1.90;;
48813;SDS011;34634;44.108;3.074;2023-04-24T12:09:55;2.67;;;1.25;;
48813;SDS011;34634;44.108;3.074;2023-04-24T12:12:24;2.97;;;1.50;;
48813;SDS011;34634;44.108;3.074;2023-04-24T12:14:57;4.18;;;1.40;;
48813;SDS011;34634;44.108;3.074;2023-04-24T12:17:28;2.75;;;1.27;;
48813;SDS011;34634;44.108;3.074;2023-04-24T12:19:59;3.75;;;2.60;;
48813;SDS011;34634;44.108;3.074;2023-04-24T12:22:26;5.32;;;3.00;;
48813;SDS011;34634;44.108;3.074;2023-04-24T12:25:00;4.38;;;1.88;;
48813;SDS011;34634;44.108;3.074;2023-04-24T12:27:28;4.38;;;2.80;;
48813;SDS011;34634;44.108;3.074;2023-04-24T12:29:57;2.78;;;1.95;;
48813;SDS011;34634;44.108;3.074;2023-04-24T12:32:24;3.58;;;1.80;;
48813;SDS011;34634;44.108;3.074;2023-04-24T12:34:51;3.95;;;1.90;;
48813;SDS011;34634;44.108;3.074;2023-04-24T12:37:18;5.03;;;1.70;;
48813;SDS011;34634;44.108;3.074;2023-04-24T12:42:31;4.15;;;1.70;;
48813;SDS011;34634;44.108;3.074;2023-04-24T12:44:58;2.72;;;1.50;;
48813;SDS011;34634;44.108;3.074;2023-04-24T12:47:25;4.35;;;1.52;;
48813;SDS011;34634;44.108;3.074;2023-04-24T12:49:51;5.45;;;2.50;;
48813;SDS011;34634;44.108;3.074;2023-04-24T12:52:18;3.47;;;2.00;;
48813;SDS011;34634;44.108;3.074;2023-04-24T12:54:45;2.80;;;1.38;;
48813;SDS011;34634;44.108;3.074;2023-04-24T12:57:12;3.40;;;1.90;;
48813;SDS011;34634;44.108;3.074;2023-04-24T12:59:38;5.55;;;3.20;;
48813;SDS011;34634;44.108;3.074;2023-04-24T13:02:05;7.72;;;3.40;;
48813;SDS011;34634;44.108;3.074;2023-04-24T13:04:32;6.95;;;2.35;;
48813;SDS011;34634;44.108;3.074;2023-04-24T13:06:58;3.78;;;1.77;;
48813;SDS011;34634;44.108;3.074;2023-04-24T13:09:24;2.72;;;1.42;;
48813;SDS011;34634;44.108;3.074;2023-04-24T13:11:51;4.03;;;1.30;;
48813;SDS011;34634;44.108;3.074;2023-04-24T13:14:17;4.30;;;1.60;;
48813;SDS011;34634;44.108;3.074;2023-04-24T13:16:43;3.42;;;1.35;;
48813;SDS011;34634;44.108;3.074;2023-04-24T13:19:10;3.05;;;1.48;;
48813;SDS011;34634;44.108;3.074;2023-04-24T13:21:36;2.08;;;1.15;;
48813;SDS011;34634;44.108;3.074;2023-04-24T13:24:03;11.40;;;2.92;;
48813;SDS011;34634;44.108;3.074;2023-04-24T13:26:30;5.25;;;1.75;;
48813;SDS011;34634;44.108;3.074;2023-04-24T13:28:56;4.18;;;1.38;;
48813;SDS011;34634;44.108;3.074;2023-04-24T13:31:22;5.18;;;1.30;;
48813;SDS011;34634;44.108;3.074;2023-04-24T13:33:49;6.15;;;2.47;;
48813;SDS011;34634;44.108;3.074;2023-04-24T13:36:15;7.45;;;2.22;;
48813;SDS011;34634;44.108;3.074;2023-04-24T13:38:43;7.18;;;2.38;;
48813;SDS011;34634;44.108;3.074;2023-04-24T13:41:09;3.70;;;2.00;;
48813;SDS011;34634;44.108;3.074;2023-04-24T13:43:36;4.93;;;1.75;;
48813;SDS011;34634;44.108;3.074;2023-04-24T13:46:02;6.95;;;2.80;;
48813;SDS011;34634;44.108;3.074;2023-04-24T13:48:29;3.47;;;1.60;;
48813;SDS011;34634;44.108;3.074;2023-04-24T13:50:55;4.45;;;1.70;;
48813;SDS011;34634;44.108;3.074;2023-04-24T13:53:22;6.28;;;2.47;;
48813;SDS011;34634;44.108;3.074;2023-04-24T13:55:48;3.67;;;1.70;;
48813;SDS011;34634;44.108;3.074;2023-04-24T13:58:14;5.55;;;2.05;;
48813;SDS011;34634;44.108;3.074;2023-04-24T14:00:41;7.43;;;1.75;;
48813;SDS011;34634;44.108;3.074;2023-04-24T14:03:07;7.15;;;3.08;;
48813;SDS011;34634;44.108;3.074;2023-04-24T14:05:33;6.40;;;1.30;;
48813;SDS011;34634;44.108;3.074;2023-04-24T14:08:00;5.07;;;1.67;;
48813;SDS011;34634;44.108;3.074;2023-04-24T14:10:26;3.40;;;1.40;;
48813;SDS011;34634;44.108;3.074;2023-04-24T14:12:53;6.18;;;2.00;;
48813;SDS011;34634;44.108;3.074;2023-04-24T14:15:20;4.10;;;2.08;;
48813;SDS011;34634;44.108;3.074;2023-04-24T14:17:47;5.07;;;1.88;;
48813;SDS011;34634;44.108;3.074;2023-04-24T14:20:14;5.65;;;1.60;;
48813;SDS011;34634;44.108;3.074;2023-04-24T14:22:40;2.63;;;1.35;;
48813;SDS011;34634;44.108;3.074;2023-04-24T14:25:07;2.13;;;1.15;;
48813;SDS011;34634;44.108;3.074;2023-04-24T14:27:34;3.08;;;1.50;;
48813;SDS011;34634;44.108;3.074;2023-04-24T14:30:00;4.65;;;1.40;;
48813;SDS011;34634;44.108;3.074;2023-04-24T14:32:26;3.22;;;1.63;;
48813;SDS011;34634;44.108;3.074;2023-04-24T14:34:53;2.97;;;1.30;;
48813;SDS011;34634;44.108;3.074;2023-04-24T14:37:20;3.75;;;1.50;;
48813;SDS011;34634;44.108;3.074;2023-04-24T14:39:46;3.88;;;1.30;;
48813;SDS011;34634;44.108;3.074;2023-04-24T14:42:12;4.45;;;1.20;;
48813;SDS011;34634;44.108;3.074;2023-04-24T14:44:39;2.75;;;1.35;;
48813;SDS011;34634;44.108;3.074;2023-04-24T14:47:05;2.65;;;1.40;;
48813;SDS011;34634;44.108;3.074;2023-04-24T14:49:31;1.83;;;1.00;;
48813;SDS011;34634;44.108;3.074;2023-04-24T14:51:57;2.72;;;1.33;;